Time;durP1;ratioP1;P1;durP2;ratioP2;P2;SDS_P1;SDS_P2;PMS_P1;PMS_P2;Temp;Humidity;BMP_temperature;BMP_pressure;BME280_temperature;BME280_humidity;BME280_pressure;Samples;Min_cycle;Max_cycle;Signal;HPM_P1;HPM_P2
2022/05/18 00:01:32;;;;;;;2.45;1.90;;;26.20;42.80;;;;;;5095565;28;20016;-60
2022/05/18 00:03:59;;;;;;;2.35;1.98;;;26.20;42.80;;;;;;5095836;28;20030;-59
2022/05/18 00:06:25;;;;;;;2.00;1.85;;;26.20;42.90;;;;;;5096073;28;20563;-59
2022/05/18 00:08:52;;;;;;;2.40;2.00;;;26.20;42.90;;;;;;5096050;28;20030;-60
2022/05/18 00:11:19;;;;;;;2.40;2.03;;;26.20;42.90;;;;;;5095431;28;20008;-59
2022/05/18 00:13:46;;;;;;;3.47;2.10;;;26.20;42.90;;;;;;5093873;28;20390;-60
2022/05/18 00:16:13;;;;;;;2.58;2.13;;;26.20;43.00;;;;;;5095018;28;20510;-60
2022/05/18 00:18:39;;;;;;;2.35;2.15;;;26.20;43.00;;;;;;5093815;28;20039;-59
2022/05/18 00:21:05;;;;;;;3.80;2.00;;;26.20;43.00;;;;;;5094841;28;20077;-59
2022/05/18 00:23:33;;;;;;;3.83;2.33;;;26.20;43.10;;;;;;5094591;28;20071;-59
2022/05/18 00:25:58;;;;;;;3.03;2.30;;;26.20;43.10;;;;;;5095146;28;20019;-59
2022/05/18 00:28:25;;;;;;;3.42;2.08;;;26.20;43.10;;;;;;5094708;28;20520;-59
2022/05/18 00:30:51;;;;;;;3.42;2.33;;;26.20;43.10;;;;;;5094749;28;20043;-59
2022/05/18 00:33:17;;;;;;;2.53;2.10;;;26.20;43.10;;;;;;5094982;28;20059;-59
2022/05/18 00:35:43;;;;;;;2.55;2.20;;;26.20;43.10;;;;;;5094591;28;20016;-60
2022/05/18 00:38:09;;;;;;;4.22;2.13;;;26.10;43.10;;;;;;5093303;28;20071;-59
2022/05/18 00:40:37;;;;;;;3.25;2.08;;;26.10;43.10;;;;;;5094803;28;20016;-60
2022/05/18 00:43:04;;;;;;;3.78;2.10;;;26.10;43.20;;;;;;5094654;28;20050;-59
2022/05/18 00:45:30;;;;;;;4.55;2.17;;;26.10;43.20;;;;;;5094400;28;20009;-59
2022/05/18 00:47:56;;;;;;;2.40;2.20;;;26.10;43.30;;;;;;5094687;28;20012;-59
2022/05/18 00:50:30;;;;;;;4.18;2.38;;;26.10;43.30;;;;;;5094320;28;20367;-59
2022/05/18 00:53:11;;;;;;;3.67;2.35;;;26.10;43.30;;;;;;5094547;28;20093;-60
2022/05/18 00:55:41;;;;;;;2.72;2.47;;;26.10;43.30;;;;;;5094522;28;20016;-59
2022/05/18 00:58:12;;;;;;;3.87;2.40;;;26.10;43.30;;;;;;5093054;28;20100;-59
2022/05/18 01:00:37;;;;;;;3.75;2.30;;;26.10;43.30;;;;;;5076494;28;20074;-60
2022/05/18 01:03:16;;;;;;;2.35;2.15;;;26.10;43.30;;;;;;5094281;28;20028;-59
2022/05/18 01:05:43;;;;;;;2.78;2.17;;;26.10;43.40;;;;;;5094150;28;20085;-59
2022/05/18 01:08:10;;;;;;;3.70;2.55;;;26.00;43.40;;;;;;5094110;28;20012;-59
2022/05/18 01:10:36;;;;;;;2.58;2.20;;;26.10;43.40;;;;;;5093179;28;20016;-59
2022/05/18 01:13:03;;;;;;;6.28;2.72;;;26.00;43.40;;;;;;5093990;28;20016;-59
2022/05/18 01:15:29;;;;;;;3.72;2.60;;;26.10;43.60;;;;;;5094060;28;20028;-59
2022/05/18 01:17:58;;;;;;;3.50;2.53;;;26.10;43.70;;;;;;5094368;28;20132;-59
2022/05/18 01:20:26;;;;;;;3.17;2.72;;;26.00;43.60;;;;;;5094374;28;20020;-59
2022/05/18 01:23:11;;;;;;;4.78;2.60;;;26.00;43.80;;;;;;5092690;28;20047;-58
2022/05/18 01:25:46;;;;;;;3.88;2.67;;;26.00;43.90;;;;;;5093974;28;20012;-59
2022/05/18 01:28:12;;;;;;;4.38;3.03;;;26.00;43.90;;;;;;5093948;28;20040;-59
2022/05/18 01:30:42;;;;;;;3.55;2.85;;;26.00;44.60;;;;;;5093875;28;20085;-59
2022/05/18 01:33:08;;;;;;;3.45;2.55;;;26.00;44.00;;;;;;5093459;28;20062;-59
2022/05/18 01:35:34;;;;;;;5.50;3.25;;;26.00;44.00;;;;;;5092334;28;20038;-59
2022/05/18 01:38:00;;;;;;;2.65;2.35;;;25.90;43.90;;;;;;5092217;28;20552;-60
2022/05/18 01:40:51;;;;;;;5.85;2.80;;;26.00;44.00;;;;;;5093427;28;20027;-60
2022/05/18 01:43:33;;;;;;;3.25;2.55;;;26.00;44.00;;;;;;5093519;28;20482;-60
2022/05/18 01:46:00;;;;;;;3.72;2.50;;;26.00;43.90;;;;;;5093860;28;20012;-59
2022/05/18 01:48:32;;;;;;;3.47;2.85;;;26.00;44.00;;;;;;5093866;28;20008;-60
2022/05/18 01:50:59;;;;;;;4.47;2.40;;;26.00;44.00;;;;;;5093888;28;20095;-59
2022/05/18 01:53:26;;;;;;;3.83;2.70;;;26.00;44.00;;;;;;5093642;28;20024;-59
2022/05/18 01:55:52;;;;;;;6.43;2.90;;;26.00;44.00;;;;;;5093403;28;20039;-59
2022/05/18 01:58:18;;;;;;;3.33;2.75;;;26.00;44.00;;;;;;5093149;28;20482;-59
2022/05/18 02:00:45;;;;;;;2.70;2.50;;;26.00;44.00;;;;;;5093078;28;20074;-60
2022/05/18 02:03:12;;;;;;;5.30;2.72;;;26.00;44.00;;;;;;5093251;28;20054;-59
2022/05/18 02:05:38;;;;;;;3.55;3.00;;;26.00;44.00;;;;;;5093355;28;20078;-59
2022/05/18 02:08:04;;;;;;;3.13;2.50;;;25.90;43.90;;;;;;5093321;28;20099;-59
2022/05/18 02:10:30;;;;;;;3.60;2.67;;;25.90;43.90;;;;;;5093294;28;20095;-59
2022/05/18 02:12:56;;;;;;;3.22;2.83;;;25.90;44.00;;;;;;5093290;28;20522;-59
2022/05/18 02:15:25;;;;;;;2.85;2.50;;;25.90;44.00;;;;;;5093301;28;20024;-59
2022/05/18 02:17:51;;;;;;;2.75;2.55;;;25.90;44.00;;;;;;5093193;28;20020;-59
2022/05/18 02:20:17;;;;;;;3.00;2.42;;;25.90;44.00;;;;;;5092888;28;20076;-59
2022/05/18 02:22:43;;;;;;;2.97;2.67;;;25.90;44.00;;;;;;5092661;28;20072;-59
2022/05/18 02:25:09;;;;;;;4.30;2.75;;;25.90;44.00;;;;;;5093234;28;20467;-59
2022/05/18 02:27:35;;;;;;;3.63;2.97;;;25.90;44.00;;;;;;5093273;28;20016;-59
2022/05/18 02:30:01;;;;;;;4.88;2.83;;;25.90;44.10;;;;;;5092855;28;20004;-59
2022/05/18 02:32:27;;;;;;;5.25;2.80;;;25.90;44.10;;;;;;5092841;28;20081;-59
2022/05/18 02:34:53;;;;;;;3.92;3.10;;;25.90;44.10;;;;;;5091663;28;20012;-59
2022/05/18 02:37:19;;;;;;;3.97;2.75;;;25.90;44.10;;;;;;5092996;28;20020;-59
2022/05/18 02:39:45;;;;;;;2.80;2.55;;;25.90;44.10;;;;;;5092962;28;20077;-59
2022/05/18 02:42:12;;;;;;;3.72;2.97;;;25.90;44.10;;;;;;5092531;28;20057;-59
2022/05/18 02:44:38;;;;;;;3.10;2.80;;;25.90;44.20;;;;;;5095208;28;20141;-59
2022/05/18 02:47:04;;;;;;;4.72;2.38;;;25.90;44.20;;;;;;5096704;28;20050;-59
2022/05/18 02:49:30;;;;;;;4.18;3.20;;;25.90;44.20;;;;;;5096669;28;20069;-59
2022/05/18 02:51:56;;;;;;;4.60;3.05;;;25.90;44.20;;;;;;5096677;28;20099;-59
2022/05/18 02:57:07;;;;;;;3.38;2.80;;;25.90;44.20;;;;;;5096830;28;20031;-59
2022/05/18 02:59:33;;;;;;;6.45;2.75;;;25.90;44.20;;;;;;5095277;28;20016;-59
2022/05/18 03:01:59;;;;;;;4.65;3.30;;;25.90;44.20;;;;;;5096343;28;20524;-59
2022/05/18 03:04:25;;;;;;;3.33;2.92;;;25.90;44.20;;;;;;5096378;28;20496;-59
2022/05/18 03:06:51;;;;;;;3.22;2.92;;;25.80;44.20;;;;;;5096685;28;20096;-59
2022/05/18 03:09:18;;;;;;;3.60;2.90;;;25.80;44.20;;;;;;5096262;28;20486;-59
2022/05/18 03:11:44;;;;;;;3.22;2.75;;;25.90;44.30;;;;;;5096218;28;20016;-59
2022/05/18 03:14:10;;;;;;;3.85;2.78;;;25.90;44.30;;;;;;5096198;28;20026;-58
2022/05/18 03:16:36;;;;;;;3.42;3.10;;;25.80;44.20;;;;;;5096469;28;20043;-59
2022/05/18 03:19:02;;;;;;;3.60;3.05;;;25.80;44.30;;;;;;5095381;28;20044;-59
2022/05/18 03:24:12;;;;;;;4.22;2.90;;;25.80;44.30;;;;;;5096116;28;20090;-59
2022/05/18 03:26:39;;;;;;;4.90;3.40;;;25.80;44.30;;;;;;5096071;28;20016;-60
2022/05/18 03:29:04;;;;;;;3.97;2.90;;;25.80;44.30;;;;;;5095943;28;20554;-59
2022/05/18 03:31:30;;;;;;;5.15;3.05;;;25.80;44.30;;;;;;5096031;28;20051;-59
2022/05/18 03:33:56;;;;;;;4.03;2.78;;;25.80;44.90;;;;;;5096174;28;20008;-59
2022/05/18 03:36:22;;;;;;;4.22;3.03;;;25.80;44.30;;;;;;5095783;28;20340;-60
2022/05/18 03:38:50;;;;;;;3.13;2.58;;;25.80;44.30;;;;;;5096061;28;20024;-59
2022/05/18 03:41:19;;;;;;;3.00;2.67;;;25.80;44.30;;;;;;5096012;28;20020;-59
2022/05/18 03:43:45;;;;;;;3.78;2.88;;;25.80;44.40;;;;;;5094489;28;20028;-60
2022/05/18 03:46:11;;;;;;;4.85;3.42;;;25.80;45.00;;;;;;5094463;28;20692;-59
2022/05/18 03:48:37;;;;;;;3.53;2.97;;;25.80;44.40;;;;;;5095828;28;20043;-60
2022/05/18 03:51:04;;;;;;;6.38;3.30;;;25.80;44.50;;;;;;5096042;28;20008;-59
2022/05/18 03:53:30;;;;;;;4.68;3.10;;;25.80;44.50;;;;;;5095964;28;20016;-60
2022/05/18 03:55:56;;;;;;;3.08;2.80;;;25.80;44.50;;;;;;5095009;28;20020;-59
2022/05/18 03:58:22;;;;;;;3.65;3.13;;;25.70;44.50;;;;;;5095440;28;20031;-59
2022/05/18 04:00:49;;;;;;;4.35;2.88;;;25.70;44.50;;;;;;5095618;28;20012;-59
2022/05/18 04:03:15;;;;;;;4.82;2.95;;;25.70;44.40;;;;;;5095543;28;20046;-59
2022/05/18 04:05:42;;;;;;;4.70;3.40;;;25.70;44.50;;;;;;5095577;28;20466;-59
2022/05/18 04:08:08;;;;;;;3.28;2.90;;;25.80;44.40;;;;;;5095583;28;20459;-59
2022/05/18 04:10:35;;;;;;;4.05;3.10;;;25.70;44.50;;;;;;5095666;28;20024;-59
2022/05/18 04:13:00;;;;;;;4.13;3.00;;;25.70;44.50;;;;;;5095178;28;20042;-60
2022/05/18 04:15:27;;;;;;;4.05;3.08;;;25.70;44.50;;;;;;5093841;28;20471;-59
2022/05/18 04:17:53;;;;;;;4.55;2.83;;;25.70;44.60;;;;;;5095053;28;20028;-59
2022/05/18 04:20:21;;;;;;;3.55;2.80;;;25.70;44.50;;;;;;5094960;28;20015;-61
2022/05/18 04:22:47;;;;;;;4.32;3.30;;;25.70;44.60;;;;;;5094785;28;20059;-59
2022/05/18 04:25:14;;;;;;;3.75;3.05;;;25.70;44.60;;;;;;5093688;28;20403;-59
2022/05/18 04:27:42;;;;;;;3.72;3.28;;;25.70;44.60;;;;;;5094833;28;20429;-59
2022/05/18 04:30:09;;;;;;;3.60;3.13;;;25.70;44.70;;;;;;5094776;28;20095;-59
2022/05/18 04:32:38;;;;;;;3.47;2.85;;;25.70;44.70;;;;;;5094707;28;20486;-59
2022/05/18 04:35:05;;;;;;;4.32;3.35;;;25.70;44.70;;;;;;5094952;28;20138;-59
2022/05/18 04:37:31;;;;;;;3.13;2.80;;;25.70;44.80;;;;;;5094607;28;20004;-60
2022/05/18 04:39:58;;;;;;;3.67;2.85;;;25.70;44.80;;;;;;5094731;28;20475;-59
2022/05/18 04:42:24;;;;;;;5.28;3.03;;;25.70;44.80;;;;;;5094786;28;20028;-60
2022/05/18 04:44:51;;;;;;;5.43;2.97;;;25.70;44.90;;;;;;5094503;28;20016;-60
2022/05/18 04:47:20;;;;;;;8.70;3.15;;;25.70;45.00;;;;;;5094807;28;20093;-59
2022/05/18 04:49:45;;;;;;;3.80;3.10;;;25.70;45.00;;;;;;5094470;28;20016;-59
2022/05/18 04:52:11;;;;;;;4.70;3.15;;;25.70;45.00;;;;;;5094479;28;20093;-59
2022/05/18 04:54:37;;;;;;;4.57;2.90;;;25.70;45.80;;;;;;5094629;28;20019;-59
2022/05/18 04:57:04;;;;;;;4.03;3.03;;;25.70;45.20;;;;;;5094574;28;20100;-59
2022/05/18 04:59:30;;;;;;;3.78;3.03;;;25.60;45.30;;;;;;5093057;28;20016;-59
2022/05/18 05:01:56;;;;;;;3.90;2.80;;;25.60;45.40;;;;;;5093067;28;20119;-59
2022/05/18 05:04:23;;;;;;;4.03;2.90;;;25.60;45.40;;;;;;5094267;28;20043;-59
2022/05/18 05:06:49;;;;;;;5.43;3.17;;;25.60;45.50;;;;;;5093535;28;20012;-59
2022/05/18 05:09:16;;;;;;;3.95;3.03;;;25.60;45.40;;;;;;5094352;28;20024;-59
2022/05/18 05:11:42;;;;;;;3.50;2.90;;;25.60;45.50;;;;;;5093946;28;20020;-59
2022/05/18 05:14:08;;;;;;;4.05;3.08;;;25.60;45.50;;;;;;5093912;28;20374;-59
2022/05/18 05:16:34;;;;;;;5.43;3.08;;;25.60;45.60;;;;;;5093906;28;20027;-59
2022/05/18 05:19:00;;;;;;;4.07;3.40;;;25.60;45.60;;;;;;5093972;28;20470;-59
2022/05/18 05:21:25;;;;;;;4.40;3.15;;;25.60;45.60;;;;;;5093975;28;20020;-59
2022/05/18 05:23:51;;;;;;;3.90;3.10;;;25.60;45.70;;;;;;5092958;28;20069;-59
2022/05/18 05:26:18;;;;;;;4.57;3.03;;;25.60;46.40;;;;;;5092866;28;20085;-60
2022/05/18 05:28:44;;;;;;;3.65;3.03;;;25.60;45.90;;;;;;5092491;28;20024;-59
2022/05/18 05:31:10;;;;;;;4.50;2.58;;;25.60;45.90;;;;;;5092529;28;20004;-59
2022/05/18 05:33:36;;;;;;;6.00;3.20;;;25.60;46.00;;;;;;5093832;28;20099;-59
2022/05/18 05:36:02;;;;;;;5.28;3.00;;;25.60;46.10;;;;;;5093893;28;20051;-59
2022/05/18 05:38:28;;;;;;;4.32;3.33;;;25.60;46.00;;;;;;5092619;28;20058;-59
2022/05/18 05:40:55;;;;;;;3.58;3.10;;;25.60;46.10;;;;;;5092632;28;20040;-59
2022/05/18 05:43:20;;;;;;;4.20;3.17;;;25.70;45.90;;;;;;5093696;28;20067;-60
2022/05/18 05:45:57;;;;;;;3.10;2.67;;;25.70;46.10;;;;;;5093715;28;20023;-59
2022/05/18 05:48:23;;;;;;;4.32;2.85;;;25.70;46.20;;;;;;5094009;28;20458;-59
2022/05/18 05:50:49;;;;;;;6.20;3.10;;;25.70;46.20;;;;;;5093049;28;20018;-59
2022/05/18 05:53:15;;;;;;;4.00;2.80;;;25.60;46.00;;;;;;5093535;28;20502;-59
2022/05/18 05:55:41;;;;;;;3.10;2.80;;;25.60;46.60;;;;;;5093420;28;20020;-59
2022/05/18 05:58:07;;;;;;;4.13;2.83;;;25.60;46.60;;;;;;5091490;28;20538;-59
2022/05/18 06:00:33;;;;;;;3.70;3.17;;;25.60;46.60;;;;;;5092561;28;20089;-60
2022/05/18 06:02:59;;;;;;;3.00;2.70;;;25.60;46.70;;;;;;5092856;28;20111;-60
2022/05/18 06:05:25;;;;;;;4.25;3.10;;;25.60;46.60;;;;;;5092629;28;20021;-60
2022/05/18 06:07:51;;;;;;;4.32;2.95;;;25.60;46.60;;;;;;5091171;28;20012;-60
2022/05/18 06:10:17;;;;;;;3.90;2.88;;;25.60;46.50;;;;;;5092252;28;20013;-60
2022/05/18 06:12:43;;;;;;;5.85;3.00;;;25.60;46.60;;;;;;5091301;28;20222;-60
2022/05/18 06:15:11;;;;;;;5.07;3.05;;;25.70;46.50;;;;;;5074068;28;20483;-60
2022/05/18 06:17:37;;;;;;;4.00;2.90;;;25.70;46.60;;;;;;5073569;28;20106;-60
2022/05/18 06:20:04;;;;;;;3.35;2.60;;;25.70;46.70;;;;;;5091705;28;20051;-61
2022/05/18 06:22:30;;;;;;;3.85;2.65;;;25.60;46.60;;;;;;5089129;28;20139;-64
2022/05/18 06:24:56;;;;;;;10.65;3.47;;;25.70;47.00;;;;;;5088798;28;20020;-62
2022/05/18 06:27:22;;;;;;;6.68;2.72;;;25.30;50.40;;;;;;5089600;28;20073;-62
2022/05/18 06:29:48;;;;;;;7.43;2.70;;;24.60;53.10;;;;;;5090844;28;20019;-62
2022/05/18 06:32:16;;;;;;;7.93;3.13;;;24.00;53.00;;;;;;5089376;28;20028;-63
2022/05/18 06:34:42;;;;;;;9.57;2.53;;;23.70;54.50;;;;;;5106437;27;20031;-62
2022/05/18 06:37:08;;;;;;;5.72;2.42;;;24.00;54.80;;;;;;5091125;28;20016;-63
2022/05/18 06:39:34;;;;;;;9.07;3.22;;;24.50;54.00;;;;;;5091013;28;20099;-63
2022/05/18 06:42:00;;;;;;;5.05;2.63;;;24.70;53.30;;;;;;5091061;28;20036;-62
2022/05/18 06:44:26;;;;;;;10.20;2.92;;;24.60;53.20;;;;;;5090969;28;20008;-62
2022/05/18 06:46:52;;;;;;;6.55;2.70;;;24.40;53.20;;;;;;5091017;28;20060;-63
2022/05/18 06:49:18;;;;;;;6.90;2.55;;;24.50;52.50;;;;;;5091492;28;20467;-61
2022/05/18 06:51:47;;;;;;;5.20;2.13;;;24.20;53.00;;;;;;5091434;28;20035;-61
2022/05/18 06:54:14;;;;;;;8.38;2.47;;;24.30;51.60;;;;;;5091873;28;20020;-60
2022/05/18 06:56:41;;;;;;;6.22;2.95;;;24.50;52.00;;;;;;5091419;28;20019;-61
2022/05/18 06:59:07;;;;;;;6.47;2.08;;;24.40;49.90;;;;;;5090298;28;20099;-62
2022/05/18 07:01:33;;;;;;;7.20;2.80;;;24.10;50.40;;;;;;5090025;28;20411;-63
2022/05/18 07:03:59;;;;;;;5.10;2.22;;;23.50;50.70;;;;;;5091183;28;20051;-62
2022/05/18 07:06:28;;;;;;;6.07;2.22;;;23.50;52.30;;;;;;5089984;28;20368;-59
2022/05/18 07:08:57;;;;;;;4.25;2.30;;;23.40;51.50;;;;;;5091005;28;20016;-59
2022/05/18 07:11:23;;;;;;;5.93;2.08;;;23.10;51.20;;;;;;5091340;28;20150;-61
2022/05/18 07:13:51;;;;;;;15.70;2.55;;;23.10;52.00;;;;;;5090977;28;20536;-58
2022/05/18 07:16:26;;;;;;;17.45;2.80;;;23.60;51.30;;;;;;5090291;28;20038;-59
2022/05/18 07:18:52;;;;;;;22.73;2.90;;;24.10;50.70;;;;;;5092280;28;20024;-68
2022/05/18 07:21:18;;;;;;;28.05;3.25;;;24.50;49.90;;;;;;5093586;28;20099;-67
2022/05/18 07:23:44;;;;;;;24.65;3.60;;;24.80;49.60;;;;;;5094109;28;20056;-68
2022/05/18 07:26:10;;;;;;;15.00;3.17;;;25.00;49.10;;;;;;5093235;28;20008;-69
2022/05/18 07:28:39;;;;;;;10.45;2.75;;;25.10;49.40;;;;;;5092951;28;20040;-66
2022/05/18 07:31:06;;;;;;;8.98;2.38;;;25.20;47.50;;;;;;5094148;28;20107;-66
2022/05/18 07:33:32;;;;;;;6.10;2.15;;;25.20;47.40;;;;;;5096403;28;20491;-65
2022/05/18 07:35:57;;;;;;;6.60;2.00;;;25.00;47.50;;;;;;5096542;28;20099;-67
2022/05/18 07:38:25;;;;;;;5.50;2.20;;;25.10;46.60;;;;;;5094542;28;20206;-68
2022/05/18 07:40:51;;;;;;;8.73;2.60;;;25.10;46.60;;;;;;5096152;28;20008;-67
2022/05/18 07:43:18;;;;;;;15.15;2.55;;;25.10;46.20;;;;;;5096106;28;20020;-68
2022/05/18 07:45:45;;;;;;;7.88;1.92;;;24.80;46.90;;;;;;5095726;28;20025;-69
2022/05/18 07:48:10;;;;;;;5.85;2.35;;;24.80;46.80;;;;;;5094818;28;20020;-69
2022/05/18 07:50:36;;;;;;;9.95;2.25;;;24.80;46.90;;;;;;5097091;28;20050;-69
2022/05/18 07:53:02;;;;;;;7.57;2.40;;;25.00;46.30;;;;;;5096232;28;20019;-69
2022/05/18 07:55:30;;;;;;;5.47;1.92;;;25.10;46.00;;;;;;5095920;28;20111;-69
2022/05/18 07:57:55;;;;;;;7.70;2.33;;;24.80;44.50;;;;;;5094340;28;20020;-68
2022/05/18 08:00:23;;;;;;;7.47;2.00;;;24.60;44.10;;;;;;5095091;28;20039;-68
2022/05/18 08:02:49;;;;;;;8.70;1.98;;;24.40;44.70;;;;;;5093650;28;20101;-70
2022/05/18 08:05:14;;;;;;;5.22;2.15;;;24.20;45.00;;;;;;5093834;28;20016;-70
2022/05/18 08:07:45;;;;;;;7.38;2.22;;;24.30;44.90;;;;;;5094509;28;20382;-72
2022/05/18 08:15:44;;;;;;;6.32;1.90;;;24.50;44.40;;;;;;5096371;28;20417;-72
2022/05/18 08:18:11;;;;;;;6.47;2.00;;;24.50;44.40;;;;;;5096910;28;20076;-72
2022/05/18 08:20:41;;;;;;;9.82;2.38;;;24.50;44.40;;;;;;5095780;28;20111;-64
2022/05/18 08:23:07;;;;;;;13.95;2.40;;;24.70;45.60;;;;;;5094116;28;20093;-66
2022/05/18 08:25:33;;;;;;;5.78;2.15;;;25.10;46.30;;;;;;5092790;28;20478;-68
2022/05/18 08:27:58;;;;;;;9.93;1.90;;;25.20;46.20;;;;;;5093722;28;20058;-65
2022/05/18 08:30:24;;;;;;;9.77;2.40;;;25.30;46.20;;;;;;5093905;28;20009;-63
2022/05/18 08:32:50;;;;;;;4.55;2.00;;;25.40;46.10;;;;;;5093259;28;20117;-65
2022/05/18 08:35:17;;;;;;;8.20;1.98;;;25.50;45.30;;;;;;5093260;28;20020;-66
2022/05/18 08:37:44;;;;;;;8.65;2.53;;;25.50;44.70;;;;;;5092151;28;20194;-68
2022/05/18 08:40:38;;;;;;;14.88;1.92;;;25.60;44.90;;;;;;5093557;28;20035;-66
2022/05/18 08:43:08;;;;;;;6.85;1.90;;;25.70;45.20;;;;;;5083234;28;20171;-67
2022/05/18 08:45:43;;;;;;;8.35;1.65;;;25.70;44.80;;;;;;5092456;28;20012;-58
2022/05/18 08:48:24;;;;;;;6.43;1.85;;;25.80;44.90;;;;;;5092474;28;20081;-57
2022/05/18 08:50:50;;;;;;;10.07;2.30;;;25.90;45.10;;;;;;5093285;28;20100;-57
2022/05/18 08:53:38;;;;;;;5.78;1.73;;;26.00;45.00;;;;;;5091836;28;20073;-58
2022/05/18 08:56:24;;;;;;;10.13;2.40;;;26.10;45.10;;;;;;5093487;28;20020;-57
2022/05/18 08:58:53;;;;;;;10.10;1.73;;;26.30;45.20;;;;;;5091909;28;20016;-58
2022/05/18 09:01:40;;;;;;;6.18;2.00;;;26.40;45.50;;;;;;5091804;28;20103;-57
2022/05/18 09:04:12;;;;;;;4.40;1.70;;;26.40;45.30;;;;;;5092976;28;20074;-60
2022/05/18 09:06:47;;;;;;;8.95;1.75;;;26.50;45.30;;;;;;5093073;28;20012;-59
2022/05/18 09:12:03;;;;;;;4.75;1.70;;;25.50;41.80;;;;;;5093259;28;20150;-58
2022/05/18 09:14:30;;;;;;;7.18;1.67;;;25.10;43.10;;;;;;5093040;28;20111;-58
2022/05/18 09:17:10;;;;;;;6.97;1.33;;;24.50;43.20;;;;;;5091850;28;20020;-58
2022/05/18 09:19:43;;;;;;;6.57;1.70;;;24.60;44.40;;;;;;5092899;28;20016;-59
2022/05/18 09:22:38;;;;;;;13.65;2.05;;;25.10;44.40;;;;;;5091140;28;20054;-59
2022/05/18 09:25:10;;;;;;;9.70;2.63;;;25.50;43.90;;;;;;5092455;28;20008;-59
2022/05/18 09:28:00;;;;;;;9.77;2.35;;;25.70;43.80;;;;;;5092736;28;20020;-59
2022/05/18 09:30:48;;;;;;;9.88;2.13;;;25.90;43.70;;;;;;5091131;28;20012;-59
2022/05/18 09:33:18;;;;;;;6.22;1.98;;;26.10;43.70;;;;;;5092435;28;20057;-58
2022/05/18 09:36:14;;;;;;;8.18;1.80;;;26.10;43.40;;;;;;5092518;28;20023;-58
2022/05/18 09:39:09;;;;;;;7.35;1.80;;;26.20;43.40;;;;;;5092176;28;20016;-58
2022/05/18 09:41:41;;;;;;;20.52;3.42;;;26.30;43.30;;;;;;5091313;28;20062;-59
2022/05/18 09:44:47;;;;;;;16.38;2.28;;;26.20;42.80;;;;;;5090859;28;20154;-59
2022/05/18 09:47:16;;;;;;;15.10;2.10;;;26.20;43.40;;;;;;5092150;28;20086;-60
2022/05/18 09:49:45;;;;;;;13.07;1.70;;;26.20;43.40;;;;;;5092376;28;20046;-59
2022/05/18 09:52:11;;;;;;;16.08;2.22;;;26.30;43.30;;;;;;5090478;28;20020;-60
2022/05/18 09:54:38;;;;;;;10.07;1.85;;;26.40;43.40;;;;;;5091816;28;20509;-58
2022/05/18 09:57:06;;;;;;;32.65;2.10;;;26.30;43.20;;;;;;5090109;28;20051;-59
2022/05/18 09:59:41;;;;;;;12.57;2.00;;;26.40;43.20;;;;;;5090773;28;20087;-58
2022/05/18 10:07:45;;;;;;;;;;;26.20;43.30;;;;;;5092020;28;20110;-61
2022/05/18 10:10:13;;;;;;;10.93;1.70;;;26.20;43.50;;;;;;5092329;28;19900;-61
2022/05/18 10:12:46;;;;;;;13.32;2.22;;;26.10;43.40;;;;;;5092528;28;20031;-60
2022/05/18 10:15:24;;;;;;;16.40;2.17;;;26.10;43.40;;;;;;5093061;28;20093;-61
2022/05/18 10:18:09;;;;;;;16.17;2.00;;;26.00;43.60;;;;;;5093107;28;20020;-61
2022/05/18 10:20:35;;;;;;;13.00;2.00;;;26.00;43.50;;;;;;5093567;28;20031;-61
2022/05/18 10:23:01;;;;;;;11.88;1.80;;;26.00;43.40;;;;;;5091838;28;20521;-61
2022/05/18 10:25:35;;;;;;;6.22;1.48;;;26.00;44.00;;;;;;5091750;28;20008;-61
2022/05/18 10:28:22;;;;;;;16.55;2.20;;;26.00;43.50;;;;;;5093065;28;20026;-61
2022/05/18 10:30:57;;;;;;;8.85;1.75;;;26.00;43.50;;;;;;5081759;28;20012;-61
2022/05/18 10:33:33;;;;;;;6.85;1.70;;;26.00;43.60;;;;;;5097042;28;20020;-61
2022/05/18 10:36:23;;;;;;;11.40;1.92;;;26.00;43.60;;;;;;5096188;28;20012;-61
2022/05/18 10:39:00;;;;;;;8.93;1.50;;;26.00;43.50;;;;;;5094293;28;20019;-61
2022/05/18 10:41:34;;;;;;;11.65;1.80;;;26.00;43.50;;;;;;5094781;28;20020;-61
2022/05/18 10:44:03;;;;;;;8.75;1.63;;;26.00;43.50;;;;;;5092877;28;20012;-61
2022/05/18 10:46:53;;;;;;;10.63;1.88;;;26.10;43.60;;;;;;5092178;28;20016;-61
2022/05/18 10:49:38;;;;;;;7.53;1.63;;;26.10;43.60;;;;;;5092871;28;20111;-59
2022/05/18 10:52:27;;;;;;;11.18;2.25;;;26.00;43.60;;;;;;5092951;28;20023;-59
2022/05/18 10:55:06;;;;;;;4.97;1.60;;;26.00;43.90;;;;;;5092680;28;20020;-59
2022/05/18 10:57:37;;;;;;;12.63;2.13;;;26.00;43.60;;;;;;5091503;28;20091;-59
2022/05/18 11:00:12;;;;;;;8.52;1.70;;;26.00;43.60;;;;;;5092860;28;20004;-59
2022/05/18 11:02:55;;;;;;;9.40;1.55;;;26.00;43.60;;;;;;5092834;28;20058;-59
2022/05/18 11:05:47;;;;;;;5.68;1.55;;;26.00;43.60;;;;;;5094867;28;20004;-59
2022/05/18 11:08:17;;;;;;;9.30;1.70;;;26.00;43.60;;;;;;5095797;28;20016;-59
2022/05/18 11:10:48;;;;;;;12.35;2.30;;;26.00;43.60;;;;;;5098583;28;20013;-59
2022/05/18 11:13:51;;;;;;;11.15;1.83;;;26.00;43.60;;;;;;5106512;28;20024;-59
2022/05/18 11:16:23;;;;;;;8.35;1.83;;;26.00;43.60;;;;;;5103777;28;20043;-59
2022/05/18 11:18:50;;;;;;;7.50;1.80;;;26.00;43.60;;;;;;5102373;28;20024;-60
2022/05/18 11:21:45;;;;;;;5.47;1.33;;;26.00;43.60;;;;;;5099366;28;20031;-58
2022/05/18 11:24:37;;;;;;;5.78;1.45;;;26.00;43.60;;;;;;5079401;28;20030;-58
2022/05/18 11:27:25;;;;;;;6.80;1.77;;;26.10;43.60;;;;;;5093334;28;20034;-58
2022/05/18 11:30:00;;;;;;;11.10;1.83;;;26.10;43.60;;;;;;5096801;28;20056;-59
2022/05/18 11:32:45;;;;;;;4.05;1.58;;;26.10;43.60;;;;;;5096472;28;20020;-59
2022/05/18 11:35:24;;;;;;;6.40;1.38;;;26.10;43.60;;;;;;5096422;28;20020;-59
2022/05/18 11:37:57;;;;;;;9.80;1.75;;;26.10;43.60;;;;;;5094766;28;20024;-59
2022/05/18 11:40:26;;;;;;;8.48;1.63;;;26.10;43.60;;;;;;5094727;28;20020;-58
2022/05/18 11:43:33;;;;;;;5.53;1.40;;;26.10;43.60;;;;;;5094832;28;20028;-59
2022/05/18 11:46:20;;;;;;;9.00;1.75;;;26.10;44.20;;;;;;5095854;28;20016;-59
2022/05/18 11:49:13;;;;;;;9.45;1.48;;;26.10;43.50;;;;;;5095679;28;20069;-59
2022/05/18 11:52:04;;;;;;;4.68;1.40;;;26.10;43.60;;;;;;5095917;28;20024;-58
2022/05/18 11:55:08;;;;;;;3.08;1.40;;;26.10;43.60;;;;;;5095975;28;20015;-59
2022/05/18 11:58:09;;;;;;;4.55;1.40;;;26.10;43.60;;;;;;5095850;28;20074;-60
2022/05/18 12:00:46;;;;;;;4.28;1.50;;;26.10;43.50;;;;;;5075766;28;20040;-58
2022/05/18 12:03:40;;;;;;;12.65;1.33;;;26.10;43.50;;;;;;5095510;28;20028;-58
2022/05/18 12:06:29;;;;;;;5.03;1.20;;;26.10;43.50;;;;;;5095579;28;20028;-58
2022/05/18 12:09:06;;;;;;;3.63;1.55;;;26.10;43.50;;;;;;5095292;28;20095;-60
2022/05/18 12:11:32;;;;;;;4.60;1.85;;;26.10;43.50;;;;;;5095513;28;20016;-58
2022/05/18 12:14:16;;;;;;;4.53;1.55;;;26.20;43.50;;;;;;5095460;28;20019;-58
2022/05/18 12:16:48;;;;;;;10.48;1.60;;;26.20;43.50;;;;;;5094900;28;20463;-58
2022/05/18 12:19:14;;;;;;;3.42;1.20;;;26.20;43.50;;;;;;5095457;28;20119;-59
2022/05/18 12:21:52;;;;;;;3.55;1.42;;;26.20;43.50;;;;;;5095086;28;20071;-58
2022/05/18 12:24:18;;;;;;;5.13;1.55;;;26.20;43.40;;;;;;5095011;28;20054;-60
2022/05/18 12:26:44;;;;;;;6.50;1.48;;;26.20;43.40;;;;;;5094974;28;20016;-60
2022/05/18 12:29:12;;;;;;;3.53;1.23;;;26.20;43.50;;;;;;5095222;28;20012;-61
2022/05/18 12:31:37;;;;;;;2.65;1.23;;;26.20;43.60;;;;;;5093967;28;20015;-60
2022/05/18 12:34:11;;;;;;;4.22;1.58;;;26.20;43.40;;;;;;5095068;28;20024;-60
2022/05/18 12:37:29;;;;;;;4.55;1.15;;;26.20;43.40;;;;;;5093513;28;20024;-60
2022/05/18 12:40:23;;;;;;;2.42;0.90;;;26.30;43.50;;;;;;5094843;28;20027;-60
2022/05/18 12:42:57;;;;;;;2.90;1.25;;;26.30;43.50;;;;;;5093447;28;20024;-60
2022/05/18 12:45:25;;;;;;;7.05;1.50;;;26.30;43.40;;;;;;5094769;28;20008;-59
2022/05/18 12:47:52;;;;;;;2.90;1.50;;;26.30;43.40;;;;;;5094590;28;20028;-60
2022/05/18 12:50:19;;;;;;;2.25;1.10;;;26.30;43.40;;;;;;5093319;28;20015;-59
2022/05/18 12:52:55;;;;;;;4.07;1.20;;;26.30;43.30;;;;;;5094761;28;20095;-60
2022/05/18 12:55:32;;;;;;;3.85;1.60;;;26.30;43.30;;;;;;5093577;28;20027;-60
2022/05/18 12:58:09;;;;;;;5.18;1.13;;;26.30;43.30;;;;;;5094322;28;20024;-60
2022/05/18 13:01:02;;;;;;;4.03;1.42;;;26.30;43.20;;;;;;5093138;28;20020;-60
2022/05/18 13:03:52;;;;;;;2.95;1.42;;;26.40;43.30;;;;;;5094284;28;20486;-60
2022/05/18 13:06:35;;;;;;;2.65;1.20;;;26.40;43.30;;;;;;5094577;28;20009;-60
2022/05/18 13:09:35;;;;;;;2.65;1.30;;;26.40;43.20;;;;;;5093172;28;20016;-60
2022/05/18 13:12:22;;;;;;;2.28;1.20;;;26.40;43.20;;;;;;5094699;28;20020;-60
2022/05/18 13:14:59;;;;;;;2.85;1.20;;;26.40;43.20;;;;;;5094230;28;20019;-60
2022/05/18 13:17:50;;;;;;;3.17;1.42;;;26.40;43.10;;;;;;5094249;28;20497;-60
2022/05/18 13:20:25;;;;;;;3.75;1.10;;;26.50;43.10;;;;;;5094164;28;20014;-60
2022/05/18 13:23:02;;;;;;;4.63;1.40;;;26.50;43.10;;;;;;5093959;28;20075;-60
2022/05/18 13:25:36;;;;;;;2.60;1.15;;;26.50;43.10;;;;;;5094017;28;20018;-60